createdAt,value
2022-08-17T00:01:32.041Z,100746.31
2022-08-17T00:04:19.390Z,100749.03
2022-08-17T00:06:49.213Z,100740.88
2022-08-17T00:09:18.820Z,100745.47
2022-08-17T00:12:41.651Z,100743.75
2022-08-17T00:14:36.148Z,100747.50
2022-08-17T00:17:04.691Z,100749.22
2022-08-17T00:19:32.941Z,100758.41
2022-08-17T00:22:31.114Z,100754.34
2022-08-17T00:24:50.692Z,100751.97
2022-08-17T00:27:18.319Z,100752.81
2022-08-17T00:29:46.818Z,100752.66
2022-08-17T00:33:11.941Z,100755.50
2022-08-17T00:35:02.010Z,100759.44
2022-08-17T00:37:31.317Z,100761.09
2022-08-17T00:39:59.039Z,100765.53
2022-08-17T00:42:31.002Z,100761.97
2022-08-17T00:44:58.980Z,100759.44
2022-08-17T00:47:26.611Z,100761.84
2022-08-17T00:49:54.464Z,100756.72
2022-08-17T00:52:23.144Z,100755.50
2022-08-17T00:54:53.343Z,100750.22
2022-08-17T00:57:21.619Z,100746.34
2022-08-17T01:00:01.892Z,100753.84
2022-08-17T01:02:34.406Z,100755.06
2022-08-17T01:05:10.217Z,100759.63
2022-08-17T01:07:38.097Z,100751.47
2022-08-17T01:10:07.914Z,100755.06
2022-08-17T01:12:56.677Z,100754.88
2022-08-17T01:15:24.416Z,100748.56
2022-08-17T01:17:52.009Z,100757.44
2022-08-17T01:20:19.573Z,100758.44
2022-08-17T01:22:48.851Z,100758.63
2022-08-17T01:25:16.566Z,100756.06
2022-08-17T01:27:44.149Z,100751.16
2022-08-17T01:30:57.314Z,100760.53
2022-08-17T01:33:00.131Z,100757.13
2022-08-17T01:35:27.967Z,100758.34
2022-08-17T01:37:56.994Z,100758.84
2022-08-17T01:40:25.859Z,100774.16
2022-08-17T01:42:55.238Z,100776.22
2022-08-17T01:45:24.050Z,100769.75
2022-08-17T01:47:51.685Z,100769.94
2022-08-17T01:50:19.919Z,100768.22
2022-08-17T01:52:49.294Z,100773.84
2022-08-17T01:55:19.045Z,100763.97
2022-08-17T01:57:47.096Z,100764.13
2022-08-17T02:00:14.969Z,100755.78
2022-08-17T02:02:45.946Z,100766.69
2022-08-17T02:05:13.713Z,100762.78
2022-08-17T02:07:59.720Z,100763.97
2022-08-17T02:10:33.978Z,100754.28
2022-08-17T02:13:02.129Z,100762.94
2022-08-17T02:15:29.788Z,100769.75
2022-08-17T02:17:57.411Z,100765.16
2022-08-17T02:20:41.790Z,100762.41
2022-08-17T02:23:11.868Z,100767.53
2022-08-17T02:25:41.318Z,100761.25
2022-08-17T02:28:10.145Z,100760.72
2022-08-17T02:31:01.866Z,100765.16
2022-08-17T02:33:41.759Z,100762.28
2022-08-17T02:36:11.161Z,100752.72
2022-08-17T02:38:38.697Z,100755.78
2022-08-17T02:41:07.873Z,100755.09
2022-08-17T02:43:35.453Z,100752.72
2022-08-17T02:46:03.207Z,100756.13
2022-08-17T02:48:31.943Z,100752.56
2022-08-17T02:50:59.870Z,100751.53
2022-08-17T02:53:27.879Z,100749.00
2022-08-17T02:56:03.831Z,100745.56
2022-08-17T02:58:34.635Z,100747.63
2022-08-17T03:01:03.745Z,100745.25
2022-08-17T03:03:31.417Z,100747.47
2022-08-17T03:05:59.042Z,100751.53
2022-08-17T03:08:26.698Z,100743.53
2022-08-17T03:10:54.340Z,100748.31
2022-08-17T03:13:22.237Z,100747.66
2022-08-17T03:15:51.233Z,100753.09
2022-08-17T03:18:25.141Z,100752.75
2022-08-17T03:20:53.839Z,100748.34
2022-08-17T03:23:23.941Z,100746.63
2022-08-17T03:25:52.812Z,100743.22
2022-08-17T03:28:21.151Z,100746.97
2022-08-17T03:30:48.679Z,100735.41
2022-08-17T03:33:17.674Z,100739.84
2022-08-17T03:35:45.523Z,100745.28
2022-08-17T03:38:15.344Z,100752.41
2022-08-17T03:40:56.361Z,100749.03
2022-08-17T03:43:27.060Z,100754.97
2022-08-17T03:46:27.023Z,100751.41
2022-08-17T03:49:15.607Z,100752.75
2022-08-17T03:52:00.643Z,100751.75
2022-08-17T03:54:45.987Z,100753.09
2022-08-17T03:57:13.538Z,100747.66
2022-08-17T03:59:41.494Z,100757.72
2022-08-17T04:02:09.989Z,100765.53
2022-08-17T04:04:39.401Z,100748.31
2022-08-17T04:07:06.996Z,100753.09
2022-08-17T04:09:34.834Z,100762.97
2022-08-17T04:12:04.568Z,100754.66
2022-08-17T04:14:36.680Z,100755.31
2022-08-17T04:17:20.137Z,100753.25
2022-08-17T04:19:49.090Z,100755.16
2022-08-17T04:22:30.310Z,100765.69
2022-08-17T04:25:01.374Z,100750.53
2022-08-17T04:27:28.948Z,100752.44
2022-08-17T04:29:56.669Z,100755.16
2022-08-17T04:33:04.668Z,100748.00
2022-08-17T04:35:13.379Z,100752.09
2022-08-17T04:37:40.966Z,100770.81
2022-08-17T04:40:27.419Z,100777.09
2022-08-17T04:43:01.318Z,100774.56
2022-08-17T04:45:31.269Z,100772.84
2022-08-17T04:48:00.096Z,100773.88
2022-08-17T04:50:29.491Z,100778.44
2022-08-17T04:52:57.582Z,100778.44
2022-08-17T04:55:25.383Z,100783.91
2022-08-17T04:57:52.968Z,100790.56
2022-08-17T05:00:20.824Z,100795.84
2022-08-17T05:02:50.373Z,100784.78
2022-08-17T05:05:19.078Z,100786.78
2022-08-17T05:07:48.050Z,100800.94
2022-08-17T05:10:15.663Z,100798.91
2022-08-17T05:12:43.620Z,100803.50
2022-08-17T05:15:12.185Z,100802.50
2022-08-17T05:17:39.803Z,100799.75
2022-08-17T05:20:07.911Z,100806.53
2022-08-17T05:22:35.447Z,100811.63
2022-08-17T05:25:04.918Z,100803.13
2022-08-17T05:27:35.495Z,100805.50
2022-08-17T05:30:03.873Z,100806.16
2022-08-17T05:32:38.525Z,100807.69
2022-08-17T05:35:08.009Z,100811.19
2022-08-17T05:37:35.580Z,100806.41
2022-08-17T05:40:05.240Z,100814.38
2022-08-17T05:42:32.826Z,100820.16
2022-08-17T05:45:00.397Z,100811.31
2022-08-17T05:47:27.987Z,100814.56
2022-08-17T05:49:55.630Z,100810.31
2022-08-17T05:52:24.593Z,100813.69
2022-08-17T05:54:55.266Z,100815.25
2022-08-17T05:57:49.653Z,100816.41
2022-08-17T06:00:30.044Z,100816.75
2022-08-17T06:03:08.387Z,100816.41
2022-08-17T06:05:43.005Z,100810.28
2022-08-17T06:08:13.109Z,100813.72
2022-08-17T06:10:41.947Z,100820.69
2022-08-17T06:13:10.537Z,100817.97
2022-08-17T06:15:41.760Z,100829.38
2022-08-17T06:18:10.039Z,100828.19
2022-08-17T06:20:39.782Z,100828.69
2022-08-17T06:23:09.562Z,100827.50
2022-08-17T06:25:38.432Z,100827.31
2022-08-17T06:28:06.508Z,100834.31
2022-08-17T06:30:41.350Z,100831.41
2022-08-17T06:33:25.333Z,100830.19
2022-08-17T06:35:55.556Z,100827.31
2022-08-17T06:38:37.414Z,100833.44
2022-08-17T06:41:08.056Z,100828.84
2022-08-17T06:43:40.199Z,100823.22
2022-08-17T06:46:08.513Z,100822.19
2022-08-17T06:48:38.828Z,100825.59
2022-08-17T06:51:07.631Z,100823.72
2022-08-17T06:53:37.101Z,100830.88
2022-08-17T06:56:07.596Z,100835.13
2022-08-17T06:58:35.885Z,100836.84
2022-08-17T07:01:08.882Z,100833.09
2022-08-17T07:03:38.938Z,100843.81
2022-08-17T07:06:07.515Z,100844.66
2022-08-17T07:08:39.981Z,100839.03
2022-08-17T07:11:08.406Z,100842.59
2022-08-17T07:13:38.973Z,100848.72
2022-08-17T07:16:09.074Z,100842.25
2022-08-17T07:18:38.151Z,100834.91
2022-08-17T07:21:11.913Z,100832.00
2022-08-17T07:23:44.105Z,100839.19
2022-08-17T07:26:13.500Z,100835.63
2022-08-17T07:28:41.105Z,100840.91
2022-08-17T07:31:08.738Z,100838.16
2022-08-17T07:33:37.047Z,100843.44
2022-08-17T07:36:06.337Z,100834.22
2022-08-17T07:38:35.459Z,100843.28
2022-08-17T07:41:04.766Z,100846.84
2022-08-17T07:43:32.505Z,100843.94
2022-08-17T07:46:32.447Z,100845.66
2022-08-17T07:49:16.882Z,100841.03
2022-08-17T07:51:55.722Z,100849.88
2022-08-17T07:54:25.517Z,100846.16
2022-08-17T07:56:53.745Z,100840.69
2022-08-17T07:59:23.558Z,100845.13
2022-08-17T08:02:05.397Z,100843.25
2022-08-17T08:05:00.166Z,100838.63
2022-08-17T08:07:26.857Z,100844.91
2022-08-17T08:10:01.083Z,100842.91
2022-08-17T08:12:33.671Z,100840.84
2022-08-17T08:15:02.340Z,100846.28
2022-08-17T08:17:32.187Z,100841.66
2022-08-17T08:20:00.573Z,100840.66
2022-08-17T08:22:53.527Z,100854.28
2022-08-17T08:25:28.681Z,100854.97
2022-08-17T08:28:01.475Z,100844.91
2022-08-17T08:30:29.806Z,100846.59
2022-08-17T08:33:04.394Z,100840.13
2022-08-17T08:35:32.508Z,100845.59
2022-08-17T08:38:04.095Z,100844.56
2022-08-17T08:40:38.397Z,100836.38
2022-08-17T08:43:08.361Z,100844.44
2022-08-17T08:45:39.429Z,100839.81
2022-08-17T08:48:12.833Z,100843.19
2022-08-17T08:51:01.211Z,100836.06
2022-08-17T08:53:31.887Z,100841.34
2022-08-17T08:56:00.814Z,100842.19
2022-08-17T08:58:41.017Z,100842.00
2022-08-17T09:01:15.673Z,100847.47
2022-08-17T09:03:53.128Z,100846.41
2022-08-17T09:06:33.230Z,100840.97
2022-08-17T09:09:12.614Z,100839.09
2022-08-17T09:12:02.465Z,100840.78
2022-08-17T09:14:32.729Z,100831.59
2022-08-17T09:17:13.826Z,100837.03
2022-08-17T09:19:43.817Z,100839.59
2022-08-17T09:22:17.576Z,100833.97
2022-08-17T09:24:47.659Z,100841.13
2022-08-17T09:27:15.824Z,100831.06
2022-08-17T09:29:44.387Z,100830.22
2022-08-17T09:32:16.079Z,100834.63
2022-08-17T09:34:47.022Z,100830.88
2022-08-17T09:37:18.780Z,100835.31
2022-08-17T09:39:49.664Z,100837.00
2022-08-17T09:42:18.872Z,100839.72
2022-08-17T09:44:49.731Z,100835.97
2022-08-17T09:47:19.130Z,100837.69
2022-08-17T09:49:47.831Z,100841.94
2022-08-17T09:52:17.846Z,100837.34
2022-08-17T09:54:46.190Z,100839.03
2022-08-17T09:57:29.877Z,100836.94
2022-08-17T10:00:12.962Z,100837.81
2022-08-17T10:02:44.163Z,100833.22
2022-08-17T10:05:13.575Z,100832.00
2022-08-17T10:07:42.635Z,100832.00
2022-08-17T10:10:14.334Z,100830.78
2022-08-17T10:12:46.453Z,100827.03
2022-08-17T10:15:17.489Z,100827.88
2022-08-17T10:17:47.541Z,100822.41
2022-08-17T10:20:17.015Z,100823.09
2022-08-17T10:23:02.644Z,100826.69
2022-08-17T10:25:55.016Z,100822.94
2022-08-17T10:28:29.692Z,100821.03
2022-08-17T10:31:16.629Z,100821.88
2022-08-17T10:33:48.443Z,100820.88
2022-08-17T10:36:17.709Z,100824.44
2022-08-17T10:38:46.566Z,100828.03
2022-08-17T10:41:20.079Z,100823.22
2022-08-17T10:44:38.165Z,100820.50
2022-08-17T10:46:46.947Z,100827.66
2022-08-17T10:49:25.384Z,100830.38
2022-08-17T10:51:54.424Z,100819.44
2022-08-17T10:54:35.263Z,100821.16
2022-08-17T10:57:02.788Z,100825.44
2022-08-17T10:59:51.701Z,100817.25
2022-08-17T11:02:22.322Z,100817.06
2022-08-17T11:04:54.106Z,100814.31
2022-08-17T11:07:25.721Z,100813.28
2022-08-17T11:10:02.299Z,100807.81
2022-08-17T11:12:33.634Z,100806.13
2022-08-17T11:15:05.050Z,100799.63
2022-08-17T11:17:49.778Z,100800.50
2022-08-17T11:20:22.218Z,100799.63
2022-08-17T11:23:08.601Z,100795.88
2022-08-17T11:25:44.190Z,100799.44
2022-08-17T11:28:15.172Z,100802.16
2022-08-17T11:30:51.886Z,100803.03
2022-08-17T11:33:38.888Z,100792.97
2022-08-17T11:36:12.605Z,100798.25
2022-08-17T11:38:46.986Z,100795.50
2022-08-17T11:41:17.355Z,100798.06
2022-08-17T11:44:02.016Z,100791.75
2022-08-17T11:46:50.970Z,100800.63
2022-08-17T11:49:38.108Z,100796.00
2022-08-17T11:52:30.061Z,100795.16
2022-08-17T11:55:17.561Z,100788.66
2022-08-17T11:58:06.496Z,100790.34
2022-08-17T12:00:55.677Z,100789.31
2022-08-17T12:03:26.676Z,100793.06
2022-08-17T12:06:02.161Z,100795.81
2022-08-17T12:08:30.371Z,100800.25
2022-08-17T12:11:00.371Z,100799.22
2022-08-17T12:13:35.212Z,100798.34
2022-08-17T12:16:08.253Z,100798.19
2022-08-17T12:18:37.519Z,100793.56
2022-08-17T12:21:22.957Z,100791.69
2022-08-17T12:23:52.891Z,100799.72
2022-08-17T12:26:20.802Z,100796.97
2022-08-17T12:28:49.253Z,100795.94
2022-08-17T12:31:18.968Z,100797.63
2022-08-17T12:33:48.025Z,100795.75
2022-08-17T12:36:16.872Z,100788.25
2022-08-17T12:38:50.550Z,100789.91
2022-08-17T12:41:29.404Z,100781.72
2022-08-17T12:44:01.679Z,100771.50
2022-08-17T12:46:30.730Z,100769.78
2022-08-17T12:49:13.389Z,100771.50
2022-08-17T12:51:43.575Z,100767.75
2022-08-17T12:54:11.383Z,100775.06
2022-08-17T12:56:39.218Z,100771.50
2022-08-17T12:59:07.162Z,100772.19
2022-08-17T13:01:38.803Z,100769.44
2022-08-17T13:04:07.261Z,100773.88
2022-08-17T13:06:37.274Z,100758.34
2022-08-17T13:09:09.413Z,100764.81
2022-08-17T13:11:37.009Z,100772.84
2022-08-17T13:14:09.195Z,100770.09
2022-08-17T13:16:36.825Z,100769.91
2022-08-17T13:19:06.673Z,100765.31
2022-08-17T13:21:34.196Z,100762.59
2022-08-17T13:24:03.753Z,100762.41
2022-08-17T13:26:33.101Z,100758.81
2022-08-17T13:29:01.121Z,100761.53
2022-08-17T13:31:51.926Z,100755.25
2022-08-17T13:34:41.129Z,100753.16
2022-08-17T13:37:30.271Z,100754.00
2022-08-17T13:39:59.827Z,100759.47
2022-08-17T13:42:34.950Z,100757.59
2022-08-17T13:45:38.871Z,100757.41
2022-08-17T13:48:13.584Z,100750.91
2022-08-17T13:50:42.671Z,100751.78
2022-08-17T13:53:17.223Z,100759.97
2022-08-17T13:55:49.354Z,100759.09
2022-08-17T13:58:20.531Z,100746.31
2022-08-17T14:00:48.456Z,100750.72
2022-08-17T14:03:20.738Z,100741.69
2022-08-17T14:05:52.363Z,100744.69
2022-08-17T14:08:22.921Z,100741.59
2022-08-17T14:10:57.456Z,100746.41
2022-08-17T14:13:25.097Z,100737.47
2022-08-17T14:15:55.005Z,100736.63
2022-08-17T14:18:31.179Z,100732.00
2022-08-17T14:21:12.137Z,100735.41
2022-08-17T14:23:39.763Z,100736.25
2022-08-17T14:26:08.778Z,100727.84
2022-08-17T14:28:36.631Z,100722.38
2022-08-17T14:31:04.329Z,100735.03
2022-08-17T14:33:31.878Z,100721.38
2022-08-17T14:36:00.121Z,100725.81
2022-08-17T14:38:27.965Z,100723.06
2022-08-17T14:40:55.559Z,100724.94
2022-08-17T14:43:24.552Z,100723.06
2022-08-17T14:45:52.191Z,100723.91
2022-08-17T14:48:19.795Z,100723.72
2022-08-17T14:50:47.710Z,100721.00
2022-08-17T14:53:15.555Z,100720.81
2022-08-17T14:55:45.668Z,100714.69
2022-08-17T14:58:14.515Z,100709.41
2022-08-17T15:00:44.202Z,100708.34
2022-08-17T15:03:12.590Z,100714.69
2022-08-17T15:05:40.421Z,100720.16
2022-08-17T15:08:08.410Z,100716.56
2022-08-17T15:10:36.217Z,100716.56
2022-08-17T15:13:04.241Z,100721.19
2022-08-17T15:15:32.049Z,100718.25
2022-08-17T15:18:02.570Z,100716.56
2022-08-17T15:20:30.871Z,100714.69
2022-08-17T15:22:59.152Z,100708.34
2022-08-17T15:25:27.707Z,100711.09
2022-08-17T15:27:55.925Z,100711.09
2022-08-17T15:30:23.662Z,100706.69
2022-08-17T15:32:55.239Z,100713.81
2022-08-17T15:35:28.109Z,100701.03
2022-08-17T15:37:57.801Z,100696.41
2022-08-17T15:40:26.474Z,100705.44
2022-08-17T15:42:54.321Z,100693.00
2022-08-17T15:45:22.571Z,100692.44
2022-08-17T15:47:51.201Z,100688.84
2022-08-17T15:50:19.832Z,100686.13
2022-08-17T15:52:49.854Z,100683.38
2022-08-17T15:55:22.037Z,100693.28
2022-08-17T15:57:52.132Z,100703.19
2022-08-17T16:00:20.064Z,100703.19
2022-08-17T16:03:44.761Z,100695.84
2022-08-17T16:05:36.114Z,100693.94
2022-08-17T16:08:06.232Z,100680.28
2022-08-17T16:10:35.988Z,100684.72
2022-08-17T16:13:04.628Z,100691.91
2022-08-17T16:15:33.484Z,100691.03
2022-08-17T16:18:01.211Z,100687.44
2022-08-17T16:20:30.975Z,100693.75
2022-08-17T16:22:58.527Z,100691.03
2022-08-17T16:25:50.313Z,100681.78
2022-08-17T16:28:18.141Z,100675.50
2022-08-17T16:30:45.921Z,100682.63
2022-08-17T16:33:13.642Z,100685.56
2022-08-17T16:35:42.187Z,100682.63
2022-08-17T16:38:10.861Z,100682.63
2022-08-17T16:40:40.477Z,100681.78
2022-08-17T16:43:10.560Z,100676.34
2022-08-17T16:45:40.352Z,100688.09
2022-08-17T16:48:08.448Z,100678.22
2022-08-17T16:50:36.359Z,100675.31
2022-08-17T16:53:06.955Z,100669.84
2022-08-17T16:55:36.185Z,100674.44
2022-08-17T16:58:05.288Z,100676.97
2022-08-17T17:00:33.422Z,100673.41
2022-08-17T17:03:19.881Z,100671.50
2022-08-17T17:05:55.411Z,100669.66
2022-08-17T17:08:26.697Z,100673.03
2022-08-17T17:10:57.015Z,100669.47
2022-08-17T17:13:27.410Z,100666.72
2022-08-17T17:15:55.597Z,100672.38
2022-08-17T17:18:24.250Z,100672.66
2022-08-17T17:20:53.575Z,100675.41
2022-08-17T17:23:28.241Z,100675.19
2022-08-17T17:25:57.243Z,100671.59
2022-08-17T17:28:27.912Z,100670.94
2022-08-17T17:31:01.919Z,100670.13
2022-08-17T17:33:32.873Z,100670.13
2022-08-17T17:36:03.293Z,100673.88
2022-08-17T17:38:32.214Z,100670.94
2022-08-17T17:41:03.057Z,100671.97
2022-08-17T17:43:40.406Z,100669.25
2022-08-17T17:46:27.352Z,100669.06
2022-08-17T17:48:56.855Z,100670.94
2022-08-17T17:52:06.700Z,100670.94
2022-08-17T17:54:14.434Z,100665.47
2022-08-17T17:56:44.960Z,100670.13
2022-08-17T17:59:14.118Z,100675.59
2022-08-17T18:01:45.514Z,100674.72
2022-08-17T18:04:21.326Z,100682.91
2022-08-17T18:07:04.661Z,100681.88
2022-08-17T18:09:44.112Z,100683.41
2022-08-17T18:12:22.748Z,100677.44
2022-08-17T18:14:56.043Z,100682.72
2022-08-17T18:17:25.220Z,100681.88
2022-08-17T18:19:52.891Z,100686.50
2022-08-17T18:22:21.112Z,100685.66
2022-08-17T18:24:49.480Z,100688.38
2022-08-17T18:27:23.300Z,100692.81
2022-08-17T18:29:51.570Z,100690.09
2022-08-17T18:32:28.156Z,100691.97
2022-08-17T18:34:56.612Z,100699.13
2022-08-17T18:37:37.788Z,100690.94
2022-08-17T18:40:20.352Z,100695.56
2022-08-17T18:42:56.363Z,100696.38
2022-08-17T18:45:31.113Z,100691.97
2022-08-17T18:48:00.096Z,100691.13
2022-08-17T18:50:28.539Z,100691.13
2022-08-17T18:52:56.231Z,100698.28
2022-08-17T18:55:24.257Z,100699.13
2022-08-17T18:57:52.461Z,100696.56
2022-08-17T19:00:21.314Z,100692.81
2022-08-17T19:02:50.186Z,100697.44
2022-08-17T19:05:29.134Z,100691.97
2022-08-17T19:07:56.843Z,100695.56
2022-08-17T19:10:25.295Z,100691.97
2022-08-17T19:12:55.025Z,100699.13
2022-08-17T19:15:29.021Z,100692.81
2022-08-17T19:17:56.957Z,100696.38
2022-08-17T19:20:25.452Z,100699.13
2022-08-17T19:22:57.996Z,100690.09
2022-08-17T19:25:27.106Z,100698.28
2022-08-17T19:27:57.415Z,100700.00
2022-08-17T19:30:25.294Z,100698.28
2022-08-17T19:32:54.173Z,100699.13
2022-08-17T19:35:22.873Z,100701.03
2022-08-17T19:37:56.316Z,100705.47
2022-08-17T19:40:51.863Z,100710.94
2022-08-17T19:43:19.486Z,100696.88
2022-08-17T19:45:51.771Z,100700.66
2022-08-17T19:48:22.199Z,100693.47
2022-08-17T19:50:53.129Z,100698.94
2022-08-17T19:53:36.850Z,100691.78
2022-08-17T19:56:16.140Z,100683.59
2022-08-17T19:58:47.955Z,100681.69
2022-08-17T20:01:17.989Z,100685.28
2022-08-17T20:03:49.914Z,100686.13
2022-08-17T20:06:17.519Z,100679.63
2022-08-17T20:08:46.741Z,100670.56
2022-08-17T20:11:16.602Z,100677.75
2022-08-17T20:13:45.068Z,100679.44
2022-08-17T20:16:12.924Z,100682.16
2022-08-17T20:18:44.039Z,100690.19
2022-08-17T20:21:19.724Z,100694.44
2022-08-17T20:23:51.200Z,100685.38
2022-08-17T20:26:22.117Z,100687.06
2022-08-17T20:29:05.113Z,100684.53
2022-08-17T20:31:46.149Z,100688.13
2022-08-17T20:34:33.582Z,100682.66
2022-08-17T20:37:06.172Z,100691.69
2022-08-17T20:39:38.028Z,100687.94
2022-08-17T20:42:12.578Z,100696.59
2022-08-17T20:44:40.591Z,100691.97
2022-08-17T20:47:08.694Z,100694.06
2022-08-17T20:49:41.331Z,100694.69
2022-08-17T20:52:09.819Z,100695.94
2022-08-17T20:54:44.947Z,100688.69
2022-08-17T20:57:28.624Z,100691.59
2022-08-17T20:59:59.331Z,100687.34
2022-08-17T21:02:27.908Z,100691.13
2022-08-17T21:08:59.015Z,100695.09
2022-08-17T21:11:57.335Z,100703.47
2022-08-17T21:14:33.324Z,100695.84
2022-08-17T21:17:12.229Z,100698.38
2022-08-17T21:20:07.650Z,100693.09
2022-08-17T21:22:38.222Z,100700.16
2022-08-17T21:25:09.893Z,100696.41
2022-08-17T21:27:40.023Z,100693.66
2022-08-17T21:30:15.216Z,100699.13
2022-08-17T21:32:45.354Z,100696.84
2022-08-17T21:35:23.633Z,100694.13
2022-08-17T21:37:53.260Z,100694.97
2022-08-17T21:40:23.624Z,100698.38
2022-08-17T21:42:52.975Z,100700.25
2022-08-17T21:45:22.393Z,100702.88
2022-08-17T21:47:52.282Z,100705.25
2022-08-17T21:50:21.414Z,100711.91
2022-08-17T21:52:49.615Z,100704.34
2022-08-17T21:55:22.147Z,100708.91
2022-08-17T21:58:08.693Z,100702.78
2022-08-17T22:00:38.387Z,100714.84
2022-08-17T22:03:09.498Z,100709.19
2022-08-17T22:05:37.819Z,100714.66
2022-08-17T22:08:07.934Z,100716.25
2022-08-17T22:10:44.720Z,100721.22
2022-08-17T22:13:16.593Z,100714.72
2022-08-17T22:15:48.334Z,100721.16
2022-08-17T22:18:20.375Z,100722.19
2022-08-17T22:20:50.970Z,100719.47
2022-08-17T22:23:40.725Z,100720.66
2022-08-17T22:26:09.548Z,100719.91
2022-08-17T22:28:42.136Z,100717.66
2022-08-17T22:31:10.286Z,100715.56
2022-08-17T22:33:47.685Z,100715.28
2022-08-17T22:36:24.245Z,100724.53
2022-08-17T22:38:52.103Z,100728.09
2022-08-17T22:41:34.826Z,100725.06
2022-08-17T22:44:10.859Z,100729.41
2022-08-17T22:46:40.084Z,100721.22
2022-08-17T22:49:09.423Z,100727.56
2022-08-17T22:51:37.169Z,100736.59
2022-08-17T22:54:32.090Z,100740.16
2022-08-17T22:57:18.913Z,100739.31
2022-08-17T22:59:47.550Z,100734.69
2022-08-17T23:02:17.376Z,100731.97
2022-08-17T23:04:47.838Z,100725.47
2022-08-17T23:07:16.009Z,100730.09
2022-08-17T23:09:43.698Z,100720.84
2022-08-17T23:12:11.910Z,100714.53
2022-08-17T23:14:41.194Z,100718.13
2022-08-17T23:17:09.415Z,100714.53
2022-08-17T23:19:37.933Z,100716.25
2022-08-17T23:22:07.958Z,100710.97
2022-08-17T23:24:36.089Z,100712.66
2022-08-17T23:27:08.057Z,100718.31
2022-08-17T23:29:39.305Z,100708.25
2022-08-17T23:32:07.101Z,100717.28
2022-08-17T23:34:34.919Z,100708.91
2022-08-17T23:37:04.343Z,100715.19
2022-08-17T23:39:33.420Z,100714.72
2022-08-17T23:42:01.641Z,100712.00
2022-08-17T23:44:31.000Z,100707.38
2022-08-17T23:46:58.688Z,100715.75
2022-08-17T23:49:26.392Z,100708.63
2022-08-17T23:51:55.196Z,100711.53
2022-08-17T23:54:24.782Z,100709.81
2022-08-17T23:56:53.897Z,100708.97
2022-08-17T23:59:22.260Z,100707.28
